createdAt,value
2022-10-28T00:00:54.745Z,962.19
2022-10-28T00:01:54.786Z,962.18
2022-10-28T00:02:55.172Z,962.14
2022-10-28T00:03:54.715Z,962.16
2022-10-28T00:04:54.708Z,962.12
2022-10-28T00:05:54.723Z,962.07
2022-10-28T00:06:54.689Z,962.08
2022-10-28T00:07:55.005Z,962.08
2022-10-28T00:08:54.668Z,962.07
2022-10-28T00:09:54.661Z,962.04
2022-10-28T00:10:54.651Z,962.04
2022-10-28T00:11:54.640Z,962.05
2022-10-28T00:12:54.632Z,961.99
2022-10-28T00:13:54.624Z,961.96
2022-10-28T00:14:54.614Z,962
2022-10-28T00:15:54.602Z,961.9
2022-10-28T00:16:54.596Z,961.92
2022-10-28T00:17:54.885Z,961.9
2022-10-28T00:18:54.769Z,961.91
2022-10-28T00:19:54.760Z,962.02
2022-10-28T00:20:54.752Z,961.96
2022-10-28T00:21:54.766Z,962.01
2022-10-28T00:22:54.731Z,962
2022-10-28T00:23:54.726Z,962
2022-10-28T00:24:54.715Z,962
2022-10-28T00:25:54.705Z,962.01
2022-10-28T00:26:54.694Z,962.05
2022-10-28T00:27:54.920Z,962.08
2022-10-28T00:28:54.680Z,962.06
2022-10-28T00:29:54.668Z,962.01
2022-10-28T00:30:54.661Z,961.99
2022-10-28T00:31:54.649Z,961.95
2022-10-28T00:32:54.804Z,961.95
2022-10-28T00:33:54.632Z,961.88
2022-10-28T00:34:54.621Z,961.85
2022-10-28T00:35:54.614Z,961.85
2022-10-28T00:36:54.603Z,961.84
2022-10-28T00:37:54.681Z,961.84
2022-10-28T00:38:54.585Z,961.83
2022-10-28T00:39:54.575Z,961.8
2022-10-28T00:40:54.564Z,961.84
2022-10-28T00:41:54.560Z,961.85
2022-10-28T00:42:54.838Z,961.76
2022-10-28T00:43:54.539Z,961.77
2022-10-28T00:44:54.528Z,961.76
2022-10-28T00:45:54.520Z,961.74
2022-10-28T00:46:54.510Z,961.7
2022-10-28T00:47:54.748Z,961.75
2022-10-28T00:48:54.492Z,961.75
2022-10-28T00:49:54.482Z,961.77
2022-10-28T00:50:54.471Z,961.75
2022-10-28T00:51:54.465Z,961.77
2022-10-28T00:52:54.457Z,961.83
2022-10-28T00:53:54.469Z,961.83
2022-10-28T00:54:54.434Z,961.86
2022-10-28T00:55:54.427Z,961.82
2022-10-28T00:56:54.419Z,961.84
2022-10-28T00:57:54.587Z,961.84
2022-10-28T00:58:54.399Z,961.85
2022-10-28T00:59:54.390Z,961.83
2022-10-28T01:00:54.380Z,961.87
2022-10-28T01:01:54.501Z,961.85
2022-10-28T01:02:54.361Z,961.84
2022-10-28T01:03:54.353Z,961.88
2022-10-28T01:04:54.342Z,961.85
2022-10-28T01:05:54.337Z,961.86
2022-10-28T01:06:54.326Z,961.81
2022-10-28T01:07:54.706Z,961.85
2022-10-28T01:08:56.134Z,961.81
2022-10-28T01:09:54.321Z,961.83
2022-10-28T01:10:54.290Z,961.79
2022-10-28T01:11:54.279Z,961.81
2022-10-28T01:12:54.579Z,961.8
2022-10-28T01:13:54.261Z,961.78
2022-10-28T01:14:54.254Z,961.8
2022-10-28T01:15:54.243Z,961.77
2022-10-28T01:16:54.235Z,961.74
2022-10-28T01:17:54.226Z,961.74
2022-10-28T01:18:54.219Z,961.72
2022-10-28T01:19:54.208Z,961.72
2022-10-28T01:20:54.200Z,961.68
2022-10-28T01:21:54.188Z,961.7
2022-10-28T01:22:54.445Z,961.7
2022-10-28T01:23:54.171Z,961.68
2022-10-28T01:24:54.162Z,961.65
2022-10-28T01:25:54.179Z,961.72
2022-10-28T01:26:54.146Z,961.76
2022-10-28T01:27:54.134Z,961.75
2022-10-28T01:28:54.127Z,961.76
2022-10-28T01:29:54.116Z,961.74
2022-10-28T01:30:54.107Z,961.74
2022-10-28T01:31:54.100Z,961.74
2022-10-28T01:32:54.388Z,961.76
2022-10-28T01:33:54.081Z,961.75
2022-10-28T01:34:54.071Z,961.74
2022-10-28T01:35:54.061Z,961.77
2022-10-28T01:36:54.054Z,961.76
2022-10-28T01:37:54.402Z,961.75
2022-10-28T01:38:54.037Z,961.79
2022-10-28T01:39:54.025Z,961.8
2022-10-28T01:40:54.018Z,961.81
2022-10-28T01:41:54.034Z,961.78
2022-10-28T01:42:54.002Z,961.78
2022-10-28T01:43:53.989Z,961.87
2022-10-28T01:44:53.984Z,961.79
2022-10-28T01:45:53.971Z,961.81
2022-10-28T01:46:53.963Z,961.82
2022-10-28T01:47:54.274Z,961.77
2022-10-28T01:48:53.949Z,961.75
2022-10-28T01:49:53.937Z,961.73
2022-10-28T01:50:53.934Z,961.69
2022-10-28T01:51:53.919Z,961.74
2022-10-28T01:52:54.256Z,961.68
2022-10-28T01:53:53.900Z,961.68
2022-10-28T01:54:53.893Z,961.68
2022-10-28T01:55:53.885Z,961.71
2022-10-28T01:56:53.874Z,961.68
2022-10-28T01:57:53.893Z,961.7
2022-10-28T01:58:53.857Z,961.67
2022-10-28T01:59:53.846Z,961.67
2022-10-28T02:00:53.885Z,961.67
2022-10-28T02:01:53.924Z,961.7
2022-10-28T02:02:54.076Z,961.66
2022-10-28T02:03:53.811Z,961.64
2022-10-28T02:04:53.802Z,961.63
2022-10-28T02:05:53.795Z,961.63
2022-10-28T02:06:53.787Z,961.57
2022-10-28T02:07:53.778Z,961.57
2022-10-28T02:08:53.766Z,961.57
2022-10-28T02:09:53.759Z,961.56
2022-10-28T02:10:53.747Z,961.51
2022-10-28T02:11:53.742Z,961.49
2022-10-28T02:12:53.914Z,961.51
2022-10-28T02:13:53.754Z,961.51
2022-10-28T02:14:53.712Z,961.44
2022-10-28T02:15:53.707Z,961.48
2022-10-28T02:16:53.692Z,961.44
2022-10-28T02:17:53.831Z,961.4
2022-10-28T02:18:53.674Z,961.41
2022-10-28T02:19:53.669Z,961.42
2022-10-28T02:20:53.659Z,961.39
2022-10-28T02:21:53.649Z,961.43
2022-10-28T02:22:53.639Z,961.37
2022-10-28T02:23:53.630Z,961.38
2022-10-28T02:24:53.620Z,961.37
2022-10-28T02:25:53.614Z,961.37
2022-10-28T02:26:53.604Z,961.43
2022-10-28T02:27:53.888Z,961.46
2022-10-28T02:28:53.584Z,961.47
2022-10-28T02:29:53.604Z,961.46
2022-10-28T02:30:53.570Z,961.52
2022-10-28T02:31:53.558Z,961.52
2022-10-28T02:32:53.846Z,961.55
2022-10-28T02:33:53.540Z,961.54
2022-10-28T02:34:53.528Z,961.54
2022-10-28T02:35:53.524Z,961.51
2022-10-28T02:36:53.509Z,961.51
2022-10-28T02:37:53.504Z,961.54
2022-10-28T02:38:53.492Z,961.57
2022-10-28T02:39:53.489Z,961.53
2022-10-28T02:41:53.465Z,961.5
2022-10-28T02:42:53.769Z,961.55
2022-10-28T02:43:53.455Z,961.53
2022-10-28T02:44:53.436Z,961.53
2022-10-28T02:45:53.451Z,961.56
2022-10-28T02:46:53.418Z,961.56
2022-10-28T02:47:53.410Z,961.59
2022-10-28T02:48:53.399Z,961.63
2022-10-28T02:49:53.390Z,961.58
2022-10-28T02:50:53.385Z,961.64
2022-10-28T02:51:53.372Z,961.67
2022-10-28T02:52:53.730Z,961.57
2022-10-28T02:53:53.353Z,961.54
2022-10-28T02:54:53.344Z,961.52
2022-10-28T02:55:53.333Z,961.48
2022-10-28T02:56:53.326Z,961.47
2022-10-28T02:57:53.579Z,961.46
2022-10-28T02:58:53.305Z,961.46
2022-10-28T02:59:53.294Z,961.42
2022-10-28T03:00:53.317Z,961.37
2022-10-28T03:01:53.502Z,961.42
2022-10-28T03:02:53.268Z,961.41
2022-10-28T03:03:53.259Z,961.4
2022-10-28T03:04:53.251Z,961.38
2022-10-28T03:05:53.241Z,961.39
2022-10-28T03:06:53.231Z,961.38
2022-10-28T03:07:53.468Z,961.41
2022-10-28T03:08:53.212Z,961.4
2022-10-28T03:09:53.201Z,961.42
2022-10-28T03:10:53.194Z,961.46
2022-10-28T03:11:53.180Z,961.42
2022-10-28T03:12:53.176Z,961.43
2022-10-28T03:13:53.161Z,961.4
2022-10-28T03:14:53.154Z,961.42
2022-10-28T03:15:53.144Z,961.42
2022-10-28T03:16:53.136Z,961.45
2022-10-28T03:17:53.380Z,961.45
2022-10-28T03:18:53.115Z,961.41
2022-10-28T03:19:53.107Z,961.44
2022-10-28T03:20:54.241Z,961.42
2022-10-28T03:21:53.084Z,961.43
2022-10-28T03:22:53.258Z,961.38
2022-10-28T03:23:53.066Z,961.39
2022-10-28T03:24:53.058Z,961.34
2022-10-28T03:25:53.050Z,961.36
2022-10-28T03:26:53.052Z,961.37
2022-10-28T03:27:53.029Z,961.37
2022-10-28T03:28:53.708Z,961.33
2022-10-28T03:29:53.695Z,961.3
2022-10-28T03:30:53.686Z,961.24
2022-10-28T03:31:53.675Z,961.25
2022-10-28T03:49:57.229Z,961.04
2022-10-28T03:50:57.188Z,961.04
2022-10-28T03:51:57.178Z,961.04
2022-10-28T03:52:57.175Z,961.04
2022-10-28T03:53:57.152Z,961.04
2022-10-28T03:54:57.141Z,961.03
2022-10-28T03:55:57.129Z,961.01
2022-10-28T03:56:57.115Z,961.01
2022-10-28T03:57:57.105Z,961.04
2022-10-28T03:58:57.094Z,961
2022-10-28T03:59:57.085Z,960.98
2022-10-28T04:00:57.127Z,960.95
2022-10-28T04:01:57.150Z,960.96
2022-10-28T04:02:57.239Z,960.99
2022-10-28T04:03:57.041Z,961
2022-10-28T04:04:57.179Z,961
2022-10-28T04:05:57.089Z,960.94
2022-10-28T04:06:57.007Z,960.97
2022-10-28T04:07:57.000Z,960.96
2022-10-28T04:08:56.988Z,960.99
2022-10-28T04:09:56.979Z,961.02
2022-10-28T04:10:56.965Z,961.01
2022-10-28T04:11:57.017Z,961.06
2022-10-28T04:12:56.947Z,961.02
2022-10-28T04:13:56.938Z,961.05
2022-10-28T04:14:56.925Z,961.01
2022-10-28T04:15:56.918Z,960.98
2022-10-28T04:16:56.907Z,960.99
2022-10-28T04:17:56.898Z,961.01
2022-10-28T04:18:56.889Z,960.97
2022-10-28T04:19:56.878Z,960.98
2022-10-28T04:20:56.867Z,960.94
2022-10-28T04:21:56.882Z,961.02
2022-10-28T04:22:57.108Z,960.98
2022-10-28T04:23:56.842Z,960.93
2022-10-28T04:24:56.829Z,960.96
2022-10-28T04:25:56.820Z,960.96
2022-10-28T04:26:56.811Z,960.93
2022-10-28T04:27:57.012Z,960.93
2022-10-28T04:28:56.790Z,960.99
2022-10-28T04:29:56.782Z,960.92
2022-10-28T04:30:56.771Z,960.99
2022-10-28T04:31:56.767Z,961.02
2022-10-28T04:32:56.753Z,961.05
2022-10-28T04:33:56.746Z,960.99
2022-10-28T04:34:56.738Z,961.02
2022-10-28T04:35:56.726Z,961.02
2022-10-28T04:36:56.718Z,961.07
2022-10-28T04:37:56.916Z,961.08
2022-10-28T04:38:56.698Z,961.06
2022-10-28T04:39:56.692Z,961.08
2022-10-28T04:40:56.681Z,961.09
2022-10-28T04:41:56.670Z,961.11
2022-10-28T04:42:56.743Z,961.04
2022-10-28T04:43:56.649Z,961.12
2022-10-28T04:44:56.643Z,961.06
2022-10-28T04:45:56.635Z,961.03
2022-10-28T04:46:56.624Z,961.02
2022-10-28T04:47:56.613Z,961.07
2022-10-28T04:48:56.605Z,961.02
2022-10-28T04:49:56.595Z,961.04
2022-10-28T04:50:56.586Z,961.02
2022-10-28T04:51:56.577Z,961.06
2022-10-28T04:52:56.751Z,961.07
2022-10-28T04:53:56.585Z,961.04
2022-10-28T04:54:56.550Z,961.07
2022-10-28T04:55:56.539Z,961.03
2022-10-28T04:56:56.530Z,961.04
2022-10-28T04:57:56.528Z,961.04
2022-10-28T04:58:56.511Z,961.05
2022-10-28T04:59:56.501Z,961.03
2022-10-28T05:00:56.535Z,961.04
2022-10-28T05:01:56.558Z,961.09
2022-10-28T05:02:56.814Z,961.12
2022-10-28T05:03:56.465Z,961.08
2022-10-28T05:04:56.458Z,961.11
2022-10-28T05:05:56.444Z,961.09
2022-10-28T05:06:56.438Z,961.1
2022-10-28T05:07:56.787Z,961.08
2022-10-28T05:08:56.422Z,961.08
2022-10-28T05:09:56.429Z,961.09
2022-10-28T05:10:56.400Z,961.03
2022-10-28T05:11:56.389Z,961.07
2022-10-28T05:12:56.383Z,961.03
2022-10-28T05:13:56.373Z,960.97
2022-10-28T05:14:56.364Z,961.02
2022-10-28T05:15:56.352Z,961.05
2022-10-28T05:16:56.346Z,961.02
2022-10-28T05:17:56.564Z,961.02
2022-10-28T05:18:56.328Z,961.03
2022-10-28T05:19:56.315Z,960.97
2022-10-28T05:20:56.308Z,960.99
2022-10-28T05:21:56.299Z,960.99
2022-10-28T05:22:56.561Z,960.95
2022-10-28T05:23:56.280Z,960.93
2022-10-28T05:24:56.271Z,960.95
2022-10-28T05:25:56.283Z,960.91
2022-10-28T05:26:56.256Z,960.94
2022-10-28T05:27:56.243Z,960.94
2022-10-28T05:28:56.236Z,960.94
2022-10-28T05:29:56.223Z,960.94
2022-10-28T05:30:56.215Z,960.87
2022-10-28T05:31:56.236Z,960.94
2022-10-28T05:32:56.510Z,960.93
2022-10-28T05:33:56.189Z,960.91
2022-10-28T05:34:56.180Z,960.92
2022-10-28T05:35:56.169Z,960.91
2022-10-28T05:36:56.156Z,960.9
2022-10-28T05:37:56.155Z,960.93
2022-10-28T05:38:56.140Z,960.95
2022-10-28T05:39:56.129Z,960.95
2022-10-28T05:40:56.133Z,960.94
2022-10-28T05:41:56.333Z,960.92
2022-10-28T05:42:56.367Z,960.94
2022-10-28T05:43:56.106Z,960.92
2022-10-28T05:44:56.093Z,960.88
2022-10-28T05:45:56.088Z,960.95
2022-10-28T05:46:56.078Z,960.97
2022-10-28T05:47:56.282Z,960.96
2022-10-28T05:48:56.054Z,961.01
2022-10-28T05:49:56.047Z,960.98
2022-10-28T05:50:56.039Z,960.97
2022-10-28T05:51:56.031Z,960.99
2022-10-28T05:52:56.016Z,961.03
2022-10-28T05:53:56.009Z,960.93
2022-10-28T05:54:55.998Z,961.02
2022-10-28T05:55:55.994Z,961.03
2022-10-28T05:56:55.979Z,960.99
2022-10-28T05:57:56.566Z,961.06
2022-10-28T05:58:55.960Z,961.07
2022-10-28T05:59:55.951Z,961.09
2022-10-28T06:00:55.939Z,961.08
2022-10-28T06:01:56.006Z,961.14
2022-10-28T06:02:56.196Z,961.16
2022-10-28T06:03:55.965Z,961.18
2022-10-28T06:04:55.900Z,961.17
2022-10-28T06:05:55.893Z,961.2
2022-10-28T06:06:55.883Z,961.25
2022-10-28T06:07:55.873Z,961.23
2022-10-28T06:08:55.864Z,961.25
2022-10-28T06:09:55.855Z,961.29
2022-10-28T06:10:54.308Z,961.29
2022-10-28T06:11:54.302Z,961.3
2022-10-28T06:12:54.577Z,961.35
2022-10-28T06:13:54.304Z,961.31
2022-10-28T06:14:54.274Z,961.25
2022-10-28T06:15:54.269Z,961.26
2022-10-28T06:16:54.256Z,961.38
2022-10-28T06:17:54.262Z,961.4
2022-10-28T06:18:54.249Z,961.41
2022-10-28T06:19:54.246Z,961.38
2022-10-28T06:20:54.235Z,961.41
2022-10-28T06:21:54.226Z,961.38
2022-10-28T06:22:54.582Z,961.46
2022-10-28T06:23:54.208Z,961.42
2022-10-28T06:24:54.197Z,961.42
2022-10-28T06:25:54.230Z,961.39
2022-10-28T06:26:54.187Z,961.39
2022-10-28T06:27:54.525Z,961.39
2022-10-28T06:28:54.163Z,961.39
2022-10-28T06:29:54.181Z,961.42
2022-10-28T06:30:54.146Z,961.38
2022-10-28T06:31:54.135Z,961.4
2022-10-28T06:32:54.128Z,961.39
2022-10-28T06:33:54.119Z,961.39
2022-10-28T06:34:54.113Z,961.38
2022-10-28T06:35:54.103Z,961.41
2022-10-28T06:36:54.099Z,961.43
2022-10-28T06:37:54.376Z,961.42
2022-10-28T06:38:54.076Z,961.42
2022-10-28T06:39:54.065Z,961.51
2022-10-28T06:40:54.059Z,961.5
2022-10-28T06:41:54.050Z,961.53
2022-10-28T06:42:54.392Z,961.53
2022-10-28T06:43:54.033Z,961.5
2022-10-28T06:44:54.024Z,961.51
2022-10-28T06:45:54.038Z,961.57
2022-10-28T06:46:55.520Z,961.54
2022-10-28T06:47:55.512Z,961.59
2022-10-28T06:48:55.503Z,961.62
2022-10-28T06:49:55.491Z,961.6
2022-10-28T06:50:55.484Z,961.6
2022-10-28T06:51:55.478Z,961.63
2022-10-28T06:52:55.469Z,961.65
2022-10-28T06:53:55.459Z,961.66
2022-10-28T06:54:55.451Z,961.63
2022-10-28T06:55:55.441Z,961.64
2022-10-28T06:56:55.432Z,961.67
2022-10-28T06:57:55.870Z,961.72
2022-10-28T06:58:55.418Z,961.72
2022-10-28T06:59:55.405Z,961.67
2022-10-28T07:00:55.401Z,961.7
2022-10-28T07:01:55.469Z,961.68
2022-10-28T07:02:55.829Z,961.75
2022-10-28T07:03:55.374Z,961.76
2022-10-28T07:04:55.366Z,961.74
2022-10-28T07:05:55.354Z,961.76
2022-10-28T07:06:55.352Z,961.77
2022-10-28T07:07:55.890Z,961.77
2022-10-28T07:08:55.333Z,961.75
2022-10-28T07:09:55.322Z,961.79
2022-10-28T07:10:55.316Z,961.82
2022-10-28T07:11:56.012Z,961.8
2022-10-28T07:12:55.684Z,961.85
2022-10-28T07:13:55.289Z,961.85
2022-10-28T07:14:55.285Z,961.94
2022-10-28T07:15:55.275Z,961.96
2022-10-28T07:16:55.266Z,961.95
2022-10-28T07:17:55.285Z,961.97
2022-10-28T07:18:55.251Z,961.94
2022-10-28T07:19:55.242Z,962
2022-10-28T07:20:55.235Z,962.02
2022-10-28T07:21:55.227Z,962.05
2022-10-28T07:22:55.428Z,962.03
2022-10-28T07:23:55.212Z,962.04
2022-10-28T07:24:55.203Z,962.05
2022-10-28T07:25:55.235Z,962.11
2022-10-28T07:26:55.623Z,962.05
2022-10-28T07:27:55.606Z,962.1
2022-10-28T07:28:55.169Z,962.09
2022-10-28T07:29:55.161Z,962.11
2022-10-28T07:30:55.156Z,962.09
2022-10-28T07:31:55.149Z,962.07
2022-10-28T07:32:55.374Z,962.05
2022-10-28T07:33:55.159Z,962.04
2022-10-28T07:34:55.125Z,962.01
2022-10-28T07:35:55.118Z,962.05
2022-10-28T07:36:55.110Z,962.05
2022-10-28T07:37:55.101Z,962.05
2022-10-28T07:38:55.093Z,962.04
2022-10-28T07:39:55.087Z,961.99
2022-10-28T07:40:55.075Z,962.07
2022-10-28T07:41:55.070Z,962.11
2022-10-28T07:42:55.457Z,962.06
2022-10-28T07:43:55.053Z,962.04
2022-10-28T07:44:55.055Z,962.07
2022-10-28T07:45:55.041Z,962.03
2022-10-28T07:46:57.147Z,962.03
2022-10-28T07:47:55.023Z,962.07
2022-10-28T07:48:55.011Z,962.08
2022-10-28T07:49:55.029Z,962.04
2022-10-28T07:50:54.995Z,962.04
2022-10-28T07:51:54.989Z,962.08
2022-10-28T07:52:55.296Z,962.07
2022-10-28T07:53:54.971Z,962.07
2022-10-28T07:54:54.963Z,962.05
2022-10-28T07:55:54.957Z,962.05
2022-10-28T07:56:54.946Z,962.06
2022-10-28T07:57:55.343Z,962.08
2022-10-28T07:58:54.926Z,962.06
2022-10-28T07:59:54.918Z,962.05
2022-10-28T08:00:54.971Z,962.09
2022-10-28T08:01:54.970Z,962.09
2022-10-28T08:02:54.893Z,962.05
2022-10-28T08:03:54.884Z,962.04
2022-10-28T08:04:54.876Z,962.04
2022-10-28T08:05:58.829Z,962.01
2022-10-28T08:07:55.142Z,962.05
2022-10-28T08:08:54.836Z,962.07
2022-10-28T08:09:54.823Z,961.99
2022-10-28T08:10:54.819Z,962.02
2022-10-28T08:11:54.805Z,962.09
2022-10-28T08:12:54.799Z,962.05
2022-10-28T08:13:54.788Z,962.05
2022-10-28T08:14:54.778Z,962.06
2022-10-28T08:15:54.770Z,962.02
2022-10-28T08:16:54.761Z,962.04
2022-10-28T08:17:55.128Z,962.01
2022-10-28T08:18:54.743Z,961.98
2022-10-28T08:19:54.734Z,961.93
2022-10-28T08:20:54.789Z,962.04
2022-10-28T08:21:54.742Z,961.99
2022-10-28T08:22:55.049Z,962.01
2022-10-28T08:23:54.704Z,961.97
2022-10-28T08:24:54.697Z,962.03
2022-10-28T08:25:54.685Z,961.92
2022-10-28T08:26:54.679Z,961.93
2022-10-28T08:27:54.672Z,961.98
2022-10-28T08:28:54.667Z,961.92
2022-10-28T08:29:54.656Z,961.91
2022-10-28T08:31:08.145Z,961.88
2022-10-28T08:31:54.642Z,961.84
2022-10-28T08:32:54.907Z,961.86
2022-10-28T08:33:54.628Z,961.87
2022-10-28T08:34:54.625Z,961.84
2022-10-28T08:35:54.613Z,961.86
2022-10-28T08:36:54.658Z,961.87
2022-10-28T08:37:54.892Z,961.84
2022-10-28T08:38:54.593Z,961.83
2022-10-28T08:39:54.587Z,961.78
2022-10-28T08:40:54.584Z,961.77
2022-10-28T08:41:54.574Z,961.76
2022-10-28T08:42:54.800Z,961.74
2022-10-28T08:43:57.411Z,961.77
2022-10-28T08:44:54.553Z,961.74
2022-10-28T08:45:54.544Z,961.74
2022-10-28T08:46:54.540Z,961.78
2022-10-28T08:47:54.903Z,961.72
2022-10-28T08:48:54.528Z,961.71
2022-10-28T08:49:54.518Z,961.67
2022-10-28T08:50:54.513Z,961.71
2022-10-28T08:51:54.506Z,961.68
2022-10-28T08:52:54.778Z,961.69
2022-10-28T08:53:54.515Z,961.67
2022-10-28T08:54:54.496Z,961.67
2022-10-28T08:55:54.478Z,961.67
2022-10-28T08:56:54.471Z,961.61
2022-10-28T08:57:54.468Z,961.62
2022-10-28T08:58:54.457Z,961.64
2022-10-28T08:59:54.453Z,961.61
2022-10-28T09:00:54.512Z,961.59
2022-10-28T09:02:54.686Z,961.64
2022-10-28T09:03:54.426Z,961.66
2022-10-28T09:04:54.420Z,961.63
2022-10-28T09:05:54.412Z,961.6
2022-10-28T09:06:54.402Z,961.63
2022-10-28T09:07:54.398Z,961.61
2022-10-28T09:08:54.391Z,961.62
2022-10-28T09:09:54.408Z,961.62
2022-10-28T09:10:54.396Z,961.68
2022-10-28T09:11:54.374Z,961.67
2022-10-28T09:12:54.734Z,961.65
2022-10-28T09:13:54.360Z,961.69
2022-10-28T09:14:54.352Z,961.71
2022-10-28T09:15:54.346Z,961.71
2022-10-28T09:16:54.340Z,961.71
2022-10-28T09:17:54.661Z,961.73
2022-10-28T09:18:54.325Z,961.71
2022-10-28T09:19:54.320Z,961.7
2022-10-28T09:20:54.315Z,961.7
2022-10-28T09:21:54.311Z,961.67
2022-10-28T09:22:54.542Z,961.73
2022-10-28T09:23:54.297Z,961.77
2022-10-28T09:24:54.288Z,961.76
2022-10-28T09:25:54.307Z,961.74
2022-10-28T09:26:54.276Z,961.75
2022-10-28T09:27:54.501Z,961.72
2022-10-28T09:28:54.326Z,961.7
2022-10-28T09:29:54.260Z,961.7
2022-10-28T09:30:54.254Z,961.73
2022-10-28T09:31:54.247Z,961.67
2022-10-28T09:32:54.577Z,961.67
2022-10-28T09:33:54.234Z,961.72
2022-10-28T09:34:54.228Z,961.63
2022-10-28T09:35:54.228Z,961.64
2022-10-28T09:36:54.219Z,961.61
2022-10-28T09:37:54.212Z,961.55
2022-10-28T09:38:54.205Z,961.59
2022-10-28T09:39:54.203Z,961.55
2022-10-28T09:40:54.196Z,961.59
2022-10-28T09:41:54.216Z,961.55
2022-10-28T09:42:54.183Z,961.54
2022-10-28T09:43:54.182Z,961.52
2022-10-28T09:44:54.172Z,961.55
2022-10-28T09:45:54.170Z,961.51
2022-10-28T09:46:54.162Z,961.52
2022-10-28T09:47:54.357Z,961.49
2022-10-28T09:48:54.152Z,961.51
2022-10-28T09:49:54.147Z,961.48
2022-10-28T09:50:54.144Z,961.47
2022-10-28T09:51:54.153Z,961.46
2022-10-28T09:52:54.134Z,961.44
2022-10-28T09:53:54.128Z,961.43
2022-10-28T09:54:54.127Z,961.39
2022-10-28T09:55:54.940Z,961.37
2022-10-28T09:56:54.915Z,961.35
2022-10-28T09:57:55.331Z,961.39
2022-10-28T09:58:54.907Z,961.26
2022-10-28T09:59:54.899Z,961.11
2022-10-28T10:00:54.895Z,960.98
2022-10-28T10:01:54.947Z,960.87
2022-10-28T10:02:54.923Z,960.89
2022-10-28T10:03:54.879Z,960.89
2022-10-28T10:04:54.875Z,960.89
2022-10-28T10:05:54.871Z,960.87
2022-10-28T10:06:54.877Z,960.85
2022-10-28T10:07:55.122Z,960.83
2022-10-28T10:08:54.858Z,960.87
2022-10-28T10:09:54.885Z,960.87
2022-10-28T10:10:54.862Z,960.89
2022-10-28T10:11:54.846Z,960.91
2022-10-28T10:12:55.289Z,960.92
2022-10-28T10:13:54.860Z,960.98
2022-10-28T10:14:54.832Z,960.96
2022-10-28T10:15:54.825Z,960.91
2022-10-28T10:16:54.823Z,960.91
2022-10-28T10:17:55.306Z,961.07
2022-10-28T10:18:55.299Z,961.13
2022-10-28T10:19:55.293Z,961.13
2022-10-28T10:20:55.290Z,961.12
2022-10-28T10:21:55.283Z,961.12
2022-10-28T10:22:55.592Z,961.16
2022-10-28T10:23:55.278Z,961.22
2022-10-28T10:24:55.275Z,961.21
2022-10-28T10:25:55.271Z,961.17
2022-10-28T10:26:55.281Z,961.12
2022-10-28T10:27:55.596Z,961.17
2022-10-28T10:28:55.254Z,961.05
2022-10-28T10:29:55.273Z,961.05
2022-10-28T10:30:55.245Z,961.07
2022-10-28T10:31:55.237Z,961.13
2022-10-28T10:32:55.232Z,961.12
2022-10-28T10:33:55.228Z,961.11
2022-10-28T10:34:55.224Z,961.11
2022-10-28T10:35:59.127Z,961.13
2022-10-28T10:36:55.233Z,961.14
2022-10-28T10:37:55.544Z,961.17
2022-10-28T10:38:55.205Z,961.15
2022-10-28T10:39:55.200Z,960.98
2022-10-28T10:40:55.196Z,961.07
2022-10-28T10:41:55.190Z,961.08
2022-10-28T10:43:09.891Z,961.14
2022-10-28T10:43:55.236Z,961.09
2022-10-28T10:44:55.176Z,961.13
2022-10-28T10:45:55.200Z,961.1
2022-10-28T10:46:55.163Z,961.09
2022-10-28T10:47:55.607Z,961.09
2022-10-28T10:48:55.159Z,961.05
2022-10-28T10:49:55.156Z,960.98
2022-10-28T10:50:55.147Z,961.03
2022-10-28T10:51:55.143Z,961.06
2022-10-28T10:52:55.463Z,960.99
2022-10-28T10:53:55.135Z,960.98
2022-10-28T10:54:55.126Z,961.01
2022-10-28T10:55:55.122Z,960.96
2022-10-28T10:56:55.217Z,960.98
2022-10-28T10:57:55.476Z,960.96
2022-10-28T10:58:55.108Z,960.93
2022-10-28T10:59:55.102Z,960.91
2022-10-28T11:00:55.094Z,960.86
2022-10-28T11:01:55.257Z,960.86
2022-10-28T11:02:56.012Z,960.83
2022-10-28T11:03:55.209Z,960.87
2022-10-28T11:04:55.080Z,960.82
2022-10-28T11:06:05.693Z,960.84
2022-10-28T11:06:55.068Z,960.78
2022-10-28T11:07:55.436Z,960.83
2022-10-28T11:08:55.059Z,960.76
2022-10-28T11:09:55.056Z,960.74
2022-10-28T11:10:55.052Z,960.82
2022-10-28T11:11:55.045Z,960.83
2022-10-28T11:12:55.364Z,960.8
2022-10-28T11:13:55.038Z,960.74
2022-10-28T11:14:55.033Z,960.72
2022-10-28T11:15:55.028Z,960.7
2022-10-28T11:16:55.029Z,960.68
2022-10-28T11:17:55.369Z,960.71
2022-10-28T11:18:55.017Z,960.72
2022-10-28T11:19:55.014Z,960.75
2022-10-28T11:20:55.008Z,960.67
2022-10-28T11:21:55.007Z,960.72
2022-10-28T11:22:55.327Z,960.72
2022-10-28T11:23:54.997Z,960.65
2022-10-28T11:24:55.031Z,960.68
2022-10-28T11:25:54.992Z,960.67
2022-10-28T11:26:54.985Z,960.64
2022-10-28T11:27:56.303Z,960.65
2022-10-28T11:28:54.977Z,960.7
2022-10-28T11:29:54.974Z,960.63
2022-10-28T11:30:55.044Z,960.73
2022-10-28T11:31:54.963Z,960.66
2022-10-28T11:33:08.374Z,960.63
2022-10-28T11:33:54.978Z,960.68
2022-10-28T11:34:54.990Z,960.65
2022-10-28T11:35:54.946Z,960.65
2022-10-28T11:36:54.948Z,960.66
2022-10-28T11:37:54.939Z,960.64
2022-10-28T11:38:54.943Z,960.64
2022-10-28T11:39:54.933Z,960.62
2022-10-28T11:40:54.928Z,960.69
2022-10-28T11:41:54.925Z,960.59
2022-10-28T11:42:55.183Z,960.59
2022-10-28T11:43:56.879Z,960.55
2022-10-28T11:44:55.041Z,960.57
2022-10-28T11:45:54.917Z,960.54
2022-10-28T11:46:54.906Z,960.54
2022-10-28T11:47:55.223Z,960.57
2022-10-28T11:48:54.898Z,960.52
2022-10-28T11:49:54.919Z,960.54
2022-10-28T11:50:54.891Z,960.56
2022-10-28T11:51:54.886Z,960.53
2022-10-28T11:52:54.881Z,960.52
2022-10-28T11:53:54.876Z,960.49
2022-10-28T11:54:55.050Z,960.48
2022-10-28T11:55:54.869Z,960.45
2022-10-28T11:56:54.867Z,960.48
2022-10-28T11:57:55.203Z,960.4
2022-10-28T11:58:54.860Z,960.39
2022-10-28T11:59:54.852Z,960.42
2022-10-28T12:00:54.852Z,960.5
2022-10-28T12:01:55.061Z,960.48
2022-10-28T12:02:55.200Z,960.47
2022-10-28T12:03:54.838Z,960.41
2022-10-28T12:04:54.836Z,960.4
2022-10-28T12:05:54.857Z,960.38
2022-10-28T12:06:54.827Z,960.4
2022-10-28T12:07:54.822Z,960.47
2022-10-28T12:08:54.852Z,960.37
2022-10-28T12:09:54.814Z,960.42
2022-10-28T12:10:54.810Z,960.37
2022-10-28T12:12:55.167Z,960.38
2022-10-28T12:13:54.848Z,960.43
2022-10-28T12:14:54.796Z,960.37
2022-10-28T12:15:54.792Z,960.4
2022-10-28T12:16:54.789Z,960.36
2022-10-28T12:17:55.049Z,960.41
2022-10-28T12:18:54.783Z,960.45
2022-10-28T12:19:54.777Z,960.45
2022-10-28T12:20:54.822Z,960.48
2022-10-28T12:21:54.796Z,960.49
2022-10-28T12:22:55.021Z,960.51
2022-10-28T12:23:54.764Z,960.47
2022-10-28T12:24:54.808Z,960.49
2022-10-28T12:25:54.765Z,960.46
2022-10-28T12:26:54.749Z,960.47
2022-10-28T12:27:54.749Z,960.44
2022-10-28T12:28:54.743Z,960.42
2022-10-28T12:29:54.742Z,960.44
2022-10-28T12:30:54.733Z,960.38
2022-10-28T12:31:54.730Z,960.41
2022-10-28T12:32:54.944Z,960.37
2022-10-28T12:33:54.721Z,960.35
2022-10-28T12:34:54.717Z,960.39
2022-10-28T12:35:54.714Z,960.33
2022-10-28T12:36:54.711Z,960.36
2022-10-28T12:37:54.995Z,960.31
2022-10-28T12:38:54.701Z,960.24
2022-10-28T12:39:54.696Z,960.3
2022-10-28T12:40:54.691Z,960.32
2022-10-28T12:41:54.694Z,960.27
2022-10-28T12:42:54.815Z,960.27
2022-10-28T12:43:54.681Z,960.31
2022-10-28T12:44:54.793Z,960.24
2022-10-28T12:45:54.674Z,960.28
2022-10-28T12:46:54.671Z,960.26
2022-10-28T12:47:54.999Z,960.25
2022-10-28T12:48:54.658Z,960.29
2022-10-28T12:49:54.655Z,960.23
2022-10-28T12:50:54.648Z,960.22
2022-10-28T12:51:54.649Z,960.24